• Join FlightAware (Why Join?)
  • Login
  • US Flag 
03:09AM EDT


 

Airport Tracker/Info


-or-


 

Live Flight TrackerFlight Track Log ✈ AWI3704 ✈ 13-Jul-2013 ✈ KPHL - KALB

Flight Track Log - Related Links

Times and Time Zones

All times are in EDT time to prevent confusion due to time zone crossing. See the AWI3704 flight status page for this flight to view local times or setup timezone preferences in your user account.

Time Position Orientation Groundspeed Altitude Reporting Facility
EDT Latitude Longitude Course Direction KTS MPH feet Rate Location/Type
10:08AM 39.8833 -75.2167 46° Northeast 154 177 800  Level Philadelphia TRACON
10:09AM 39.8667 -75.1333 105° East 244 281 2,700 1,560 Climbing Philadelphia TRACON
10:10AM 39.7999 -74.7829 105° East  Level FlightAware Approximate
10:10AM 39.8500 -75.0500 105° East 270 311 4,300  Level Philadelphia TRACON
10:11AM 39.8267 -74.6567 37° Northeast  Level FlightAware Approximate
10:12AM 39.9238 -74.5667 North  Level FlightAware Approximate
10:12AM 39.8175 -74.8600 102° East 280 322 8,000  Level New York Center
10:13AM 40.0149 -74.4691 46° Northeast  Level FlightAware Approximate
10:13AM 39.8028 -74.7456 99° East 286 329 10,400  Level New York Center
10:14AM 39.8558 -74.6539 53° Northeast 269 310 12,600 2,220 Climbing New York Center
10:15AM 39.9289 -74.5850 36° Northeast 281 323 14,900 2,160 Climbing New York Center
10:16AM 39.9997 -74.5183 36° Northeast 297 342 17,000 1,500 Climbing New York Center
10:17AM 40.0644 -74.4514 38° Northeast 309 356 18,000 780 Climbing New York Center
10:18AM 40.1506 -74.3664 37° Northeast 334 384 18,600 960 Climbing New York Center
10:19AM 40.2381 -74.2975 31° Northeast 357 411 20,000 1,200 Climbing New York Center
10:20AM 40.3278 -74.2258 31° Northeast 369 425 21,100 960 Climbing New York Center
10:22AM 40.5128 -74.0806 31° Northeast 392 451 22,900 840 Climbing Boston Center
10:23AM 40.5992 -74.0200 28° Northeast 392 451 23,700 540 Climbing Boston Center
10:24AM 40.6939 -73.9428 32° Northeast 387 445 24,000 120 Climbing Boston Center
10:25AM 40.7931 -73.8600 32° Northeast 399 459 24,000  Level Boston Center
10:26AM 40.8733 -73.7631 42° Northeast 404 465 24,000 -360 Level Boston Center
10:27AM 40.9644 -73.6411 45° Northeast 399 459 23,300 -540 Descending Boston Center
10:28AM 41.0444 -73.5575 38° Northeast 399 459 23,000 -300 Descending Boston Center
10:29AM 41.1308 -73.4625 40° Northeast 399 459 22,700 -660 Descending Boston Center
10:30AM 41.2225 -73.4528 North 387 445 21,700 -1,500 Descending Boston Center
10:31AM 41.3642 -73.4633 357° North 385 443 19,800 -1,800 Descending Boston Center
10:32AM 41.4642 -73.4706 357° North 365 420 18,100 -1,380 Descending Boston Center
10:33AM 41.5558 -73.4803 355° North 346 398 17,100 -1,380 Descending Boston Center
10:34AM 41.6453 -73.4847 358° North 322 371 15,400 -1,080 Descending Boston Center
10:35AM 41.7369 -73.4944 355° North 322 371 15,000 -240 Descending Boston Center
10:36AM 41.8264 -73.5044 355° North 329 379 15,000 -180 Level Boston Center
10:37AM 41.9139 -73.5114 357° North 325 374 14,700 -1,320 Descending Boston Center
10:38AM 42.0097 -73.5186 357° North 329 379 12,400 -1,800 Descending Boston Center
10:39AM 42.0950 -73.5283 355° North 329 379 11,000 -720 Descending Boston Center
10:40AM 42.1758 -73.5692 339° North 323 372 11,000 -600 Level Boston Center
10:41AM 42.2547 -73.6181 335° Northwest 311 358 9,800 -1,380 Descending Boston Center
10:42AM 42.3314 -73.6617 337° Northwest 306 352 8,300 -1,740 Descending Boston Center
10:43AM 42.4119 -73.7111 336° Northwest 290 334 6,400 -1,920 Descending Boston Center
10:44AM 42.4806 -73.7464 339° North 290 334 4,500 -2,040 Descending Boston Center
10:45AM 42.5611 -73.7958 336° Northwest 295 339 2,400 -1,200 Descending Boston Center
10:46AM 42.6336 -73.8369 337° Northwest 288 331 2,100 -300 Descending Boston Center